Weather observations for the past three days for
Truckee-Tahoe
Imperial (Metric)
Date Time (pdt) Wind (mph) Vis. (mi.) Weather Sky Cond. Temperature (ºF) Relative Humidity Wind Chill (°F) Heat Index (°F) Pressure Precipitation (in)
Air Dwpt 6 hour altimeter (in) sea level (mb) 1 hr 3 hr 6 hr
Max. Min.
10 11:50 Calm 10.00 Clear SKC 75.2 35.6 24% 76 30.17 0.0
10 10:50 Vrbl 3 10.00 Clear SKC 69.8 35.6 29% 30.19 0.0
10 09:47 Vrbl 3 10.00 Clear SKC 59 37.4 45% 30.19 0.0
10 08:48 Calm 10.00 Fair CLR 50 32 50% 30.2 0.0
10 07:45 Calm 10.00 Fair CLR 44.6 33.8 66% 30.2 0.0
10 06:49 Calm 10.00 Fair CLR 37.4 32 81% 30.19 0.0
10 06:35 Calm 10.00 Fair CLR 35.6 32 87% 30.19 0.0
10 06:15 Calm 10.00 Fair CLR 33.8 32 93% 30.19 0.0
10 05:55 Calm 10.00 Fair CLR 32 32 100% 30.19 0.0
10 05:35 Calm 10.00 Fair CLR 35.6 32 87% 30.19 0.0
10 05:15 Calm 10.00 Fair CLR 33.8 32 93% 30.19 0.0
10 04:55 Calm 10.00 Fair CLR 32 32 100% 30.19 0.0
10 04:35 Calm 10.00 Fair CLR 35.6 32 87% 30.19 0.0
10 04:15 Calm 10.00 Fair CLR 35.6 32 87% 30.2 0.0
10 03:55 Calm 10.00 Fair CLR 33.8 32 93% 30.2 0.0
10 03:35 Calm 10.00 Fair CLR 37.4 32 81% 30.2 0.0
10 03:15 Calm 10.00 Fair CLR 35.6 32 87% 30.19 0.0
10 02:55 Calm 10.00 Fair CLR 37.4 33.8 87% 30.19 0.0
10 02:35 Calm 10.00 Fair CLR 37.4 33.8 87% 30.2 0.0
10 02:15 Calm 10.00 Fair CLR 37.4 33.8 87% 30.19 0.0
10 01:55 Calm 10.00 Fair CLR 39.2 33.8 81% 30.19 0.0
10 01:35 Calm 10.00 Fair CLR 39.2 35.6 87% 30.2 0.0
10 01:15 Calm 10.00 Fair CLR 41 35.6 81% 30.2 0.0
10 00:35 Calm 10.00 Fair CLR 42.8 35.6 76% 30.2 0.0
10 00:15 Calm 10.00 Fair CLR 44.6 33.8 66% 30.2 0.0
09 23:55 Calm 10.00 Fair CLR 42.8 32 66% 30.19 0.0
09 23:35 Calm 10.00 Fair CLR 44.6 33.8 66% 30.19 0.0
09 23:15 Calm 10.00 Fair CLR 42.8 33.8 71% 30.19 0.0
09 22:55 Calm 10.00 Fair CLR 48.2 33.8 58% 30.19 0.0
09 22:35 Calm 10.00 Fair CLR 50 32 50% 30.19 0.0
09 22:15 S 3 10.00 Fair CLR 46.4 33.8 62% 30.18 0.0
09 21:55 Calm 10.00 Fair CLR 53.6 33.8 47% 30.18 0.0
09 21:35 Calm 10.00 Fair CLR 51.8 35.6 54% 30.17 0.0
09 21:15 SE 6 10.00 Fair CLR 51.8 33.8 50% 30.17 0.0
09 20:55 Calm 10.00 Fair CLR 55.4 33.8 44% 30.16 0.0
09 20:35 S 5 10.00 Fair CLR 57.2 35.6 44% 30.16 0.0
09 20:15 S 3 10.00 Fair CLR 59 33.8 39% 30.14 0.0
09 19:47 Calm 10.00 Mostly Cloudy BKN240 69.8 26.6 20% 30.14 0.0
09 18:47 Vrbl 6 10.00 Partly Cloudy FEW055 SCT240 73.4 26.6 17% 30.13 0.0
09 17:47 Vrbl 6 10.00 Partly Cloudy FEW075 SCT240 75.2 30.2 19% 76 30.14 0.0
09 16:47 Vrbl 6 10.00 A Few Clouds FEW085 75.2 26.6 16% 76 30.14 0.0
09 15:48 Vrbl 6 10.00 A Few Clouds FEW085 73.4 28.4 19% 30.15 0.0
09 14:48 W 6 10.00 Fair CLR 73.4 30.2 20% 30.17 0.0
09 13:47 S 8 10.00 Fair CLR 71.6 30.2 22% 30.19 0.0
09 12:48 Vrbl 6 10.00 Fair CLR 69.8 30.2 23% 30.19 0.0
09 11:47 Vrbl 3 10.00 Fair CLR 66.2 37.4 35% 30.21 0.0
09 10:47 Calm 10.00 Fair CLR 64.4 37.4 37% 30.22 0.0
09 09:50 Calm 10.00 Fair CLR 60.8 39.2 45% 30.23 0.0
09 08:45 Calm 10.00 Clear SKC 51.8 42.8 72% 30.23 0.0
09 07:49 Calm 10.00 Fair CLR 42.8 39.2 87% 30.24 0.0
09 06:48 Calm 10.00 Fair CLR 33.8 33.8 100% 30.23 0.0
09 05:55 Calm 1.00 Fog/Mist BKN002 35.6 35.6 100% 30.22 0.0
09 05:35 Calm 0.75 Fog/Mist BKN002 35.6 35.6 100% 30.22 0.0
09 05:15 Calm 4.00 Fog/Mist CLR 37.4 37.4 100% 30.22 0.0
09 04:55 Calm 1.00 Fog/Mist VV007 35.6 35.6 100% 30.22 0.0
09 04:35 Calm 0.50 Fog BKN002 35.6 35.6 100% 30.22 0.0
09 04:15 Calm 0.50 Fog VV005 33.8 33.8 100% 30.22 0.0
09 03:55 Calm 10.00 Fair CLR 37.4 37.4 100% 30.22 0.0
09 03:35 Calm 10.00 Fair CLR 37.4 37.4 100% 30.22 0.0
09 03:15 Calm 0.00 NULL NULL 37.4 35.6 93% 30.22 0.0
09 02:55 Calm 10.00 Fair CLR 37.4 37.4 100% 30.22 0.0
09 02:35 Calm 10.00 Fair CLR 39.2 37.4 93% 30.22 0.0
09 02:15 Calm 10.00 Fair CLR 39.2 37.4 93% 30.22 0.0
09 01:55 Calm 10.00 Fair CLR 39.2 37.4 93% 30.21 0.0
09 01:35 Calm 10.00 Fair CLR 41 37.4 87% 30.21 0.0
09 01:15 Calm 10.00 Fair CLR 41 37.4 87% 30.21 0.0
09 00:55 Calm 10.00 Fair CLR 42.8 37.4 81% 30.22 0.0
09 00:35 Calm 10.00 Fair CLR 42.8 39.2 87% 30.21 0.0
09 00:15 SW 3 10.00 Fair CLR 41 37.4 87% 30.21 0.0
08 23:55 Calm 10.00 Fair CLR 41 37.4 87% 30.22 0.0
08 23:35 S 3 10.00 Fair CLR 44.6 39.2 81% 30.22 0.0
08 23:15 Calm 10.00 Fair CLR 44.6 39.2 81% 30.21 0.0
08 22:55 Calm 10.00 Fair CLR 46.4 39.2 76% 30.21 0.0
08 22:35 Calm 10.00 Fair CLR 46.4 39.2 76% 30.21 0.0
08 22:15 Calm 10.00 Fair CLR 46.4 37.4 71% 30.21 0.0
08 21:55 Calm 10.00 Fair CLR 50 39.2 67% 30.21 0.0
08 21:35 SE 5 10.00 Fair CLR 50 37.4 62% 49 30.2 0.0
08 21:15 S 5 10.00 Fair CLR 50 37.4 62% 49 30.19 0.0
08 20:55 SE 7 10.00 Fair CLR 51.8 37.4 58% 30.19 0.0
08 20:35 SE 3 10.00 Fair CLR 53.6 39.2 58% 30.19 0.0
08 20:15 W 5 10.00 Fair CLR 59 41 51% 30.19 0.0
08 19:47 SW 7 10.00 Fair CLR 62.6 39.2 42% 30.17 0.0
08 18:47 SW 8 10.00 Fair CLR 68 33.8 28% 30.17 0.0
08 17:47 SW 9 10.00 A Few Clouds FEW075 69.8 30.2 23% 30.17 0.0
08 16:47 W 10 10.00 Clear SKC 71.6 28.4 20% 30.17 0.0
08 15:47 W 7 10.00 Clear SKC 71.6 21.2 15% 30.18 0.0
08 14:47 W 9 10.00 Clear SKC 71.6 21.2 15% 30.19 0.0
08 13:50 NW 14 G 25 10.00 Fair CLR 71.6 21.2 15% 30.2 0.0
08 12:50 W 13 10.00 A Few Clouds FEW140 69.8 21.2 16% 30.2 0.0
08 11:47 W 6 10.00 Partly Cloudy SCT140 68 21.2 17% 30.22 0.0
08 10:47 Vrbl 3 10.00 Partly Cloudy SCT120 62.6 30.2 30% 30.23 0.0
08 09:45 Calm 10.00 Fair CLR 53.6 33.8 47% 30.23 0.0
08 08:48 Calm 10.00 Fair CLR 44.6 33.8 66% 30.25 0.0
08 07:49 Calm 10.00 Fair CLR 37.4 33.8 87% 30.26 0.0
08 06:48 Calm 10.00 Fair CLR 33.8 30.2 87% 30.25 0.0
08 06:35 Calm 10.00 Fair CLR 32 30.2 93% 30.25 0.0
08 06:15 Calm 10.00 Fair CLR 30.2 30.2 100% 30.25 0.0
08 05:55 Calm 10.00 Fair CLR 28.4 28.4 100% 30.23 0.0
08 05:35 Calm 10.00 Fair CLR 30.2 28.4 93% 30.23 0.0
08 05:15 Calm 10.00 Fair CLR 30.2 30.2 100% 30.23 0.0
08 04:55 Calm 10.00 Fair CLR 32 30.2 93% 30.23 0.0
08 04:35 Calm 10.00 Fair CLR 30.2 30.2 100% 30.23 0.0
08 04:15 Calm 7.00 Fair CLR 32 32 100% 30.23 0.0
08 03:55 Calm 10.00 Fair CLR 32 32 100% 30.23 0.0
08 03:15 Calm 10.00 Fair CLR 32 32 100% 30.23 0.0
08 02:55 Calm 10.00 Fair CLR 33.8 32 93% 30.23 0.0
08 02:35 Calm 10.00 Fair CLR 33.8 32 93% 30.23 0.0
08 02:15 Calm 10.00 Fair CLR 33.8 30.2 87% 30.23 0.0
08 01:55 Calm 10.00 Fair CLR 33.8 32 93% 30.23 0.0
08 01:35 Calm 10.00 Fair CLR 35.6 32 87% 30.23 0.0
08 01:15 Calm 10.00 Fair CLR 35.6 32 87% 30.23 0.0
08 00:55 Calm 10.00 Fair CLR 33.8 32 93% 30.23 0.0
08 00:35 S 3 10.00 Fair CLR 37.4 32 81% 30.24 0.0
08 00:15 Calm 10.00 Fair CLR 37.4 33.8 87% 30.24 0.0
07 23:55 Calm 10.00 Fair CLR 37.4 35.6 93% 30.23 0.0
07 23:35 Calm 10.00 Fair CLR 39.2 35.6 87% 30.23 0.0
07 23:15 S 3 10.00 Fair CLR 41 33.8 76% 30.24 0.0
07 22:55 SE 3 10.00 Fair CLR 41 33.8 76% 30.25 0.0
07 22:35 Calm 10.00 Fair CLR 42.8 37.4 81% 30.25 0.0
07 22:15 Calm 10.00 Fair CLR 44.6 37.4 76% 30.24 0.0
07 21:55 Calm 10.00 Fair CLR 44.6 39.2 81% 30.24 0.0
07 21:35 S 6 10.00 Fair CLR 46.4 37.4 71% 44 30.24 0.0
07 21:15 SE 7 10.00 Fair CLR 46.4 41 82% 43 30.23 0.0
07 20:55 SE 6 10.00 Fair CLR 51.8 39.2 62% 30.23 0.0
07 20:35 W 5 10.00 Fair CLR 55.4 39.2 55% 30.22 0.0
07 20:15 W 7 10.00 Fair CLR 57.2 39.2 51% 30.21 0.0
07 19:47 W 8 10.00 Fair CLR 60.8 39.2 45% 30.2 0.0
07 18:47 W 15 10.00 Fair CLR 64.4 39.2 40% 30.19 0.0
07 16:49 W 12 G 23 10.00 Fair CLR 69.8 32 25% 30.17 0.0
07 15:47 W 9 G 22 10.00 Fair CLR 69.8 33.8 27% 30.18 0.0
07 14:48 W 21 10.00 Fair and Breezy CLR 69.8 37.4 31% 30.2 0.0
07 13:47 W 20 10.00 Fair CLR 69.8 30.2 23% 30.21 0.0
07 12:48 SW 9 10.00 Fair CLR 68 28.4 23% 30.22 0.0
Date Time (pdt) Wind (mph) Vis. (mi.) Weather Sky Cond. Air Dwpt Max. Min. Relative Humidity Wind Chill (°F) Heat Index (°F) altimeter (in) sea level (mb) 1 hr 3 hr 6 hr
6 hour
Temperature (ºF) Pressure Precipitation (in)